sensor_id;sensor_type;location;lat;lon;timestamp;P1;durP1;ratioP1;P2;durP2;ratioP2
16119;SDS011;12670;53.502;10.252;2023-02-12T00:02:34;14.80;;;7.30;;
16119;SDS011;12670;53.502;10.252;2023-02-12T00:05:38;17.63;;;6.23;;
16119;SDS011;12670;53.502;10.252;2023-02-12T00:08:42;18.90;;;7.17;;
16119;SDS011;12670;53.502;10.252;2023-02-12T00:11:45;15.90;;;6.90;;
16119;SDS011;12670;53.502;10.252;2023-02-12T00:14:47;16.17;;;7.30;;
16119;SDS011;12670;53.502;10.252;2023-02-12T00:17:50;13.40;;;6.50;;
16119;SDS011;12670;53.502;10.252;2023-02-12T00:20:54;16.13;;;6.00;;
16119;SDS011;12670;53.502;10.252;2023-02-12T00:24:00;14.27;;;6.23;;
16119;SDS011;12670;53.502;10.252;2023-02-12T00:27:03;16.77;;;7.07;;
16119;SDS011;12670;53.502;10.252;2023-02-12T00:30:06;14.37;;;6.93;;
16119;SDS011;12670;53.502;10.252;2023-02-12T00:33:09;12.37;;;5.73;;
16119;SDS011;12670;53.502;10.252;2023-02-12T00:36:14;14.27;;;6.23;;
16119;SDS011;12670;53.502;10.252;2023-02-12T00:39:18;12.67;;;6.20;;
16119;SDS011;12670;53.502;10.252;2023-02-12T00:42:20;15.53;;;6.63;;
16119;SDS011;12670;53.502;10.252;2023-02-12T00:45:23;9.83;;;5.13;;
16119;SDS011;12670;53.502;10.252;2023-02-12T00:48:25;11.30;;;5.20;;
16119;SDS011;12670;53.502;10.252;2023-02-12T00:51:29;10.73;;;5.53;;
16119;SDS011;12670;53.502;10.252;2023-02-12T00:54:32;10.83;;;5.27;;
16119;SDS011;12670;53.502;10.252;2023-02-12T00:57:35;10.67;;;5.23;;
16119;SDS011;12670;53.502;10.252;2023-02-12T01:00:37;13.47;;;5.80;;
16119;SDS011;12670;53.502;10.252;2023-02-12T01:03:40;8.90;;;4.63;;
16119;SDS011;12670;53.502;10.252;2023-02-12T01:06:44;7.80;;;4.43;;
16119;SDS011;12670;53.502;10.252;2023-02-12T01:09:47;9.77;;;4.83;;
16119;SDS011;12670;53.502;10.252;2023-02-12T01:12:49;7.33;;;4.10;;
16119;SDS011;12670;53.502;10.252;2023-02-12T01:16:02;10.30;;;5.03;;
16119;SDS011;12670;53.502;10.252;2023-02-12T01:19:09;11.53;;;4.77;;
16119;SDS011;12670;53.502;10.252;2023-02-12T01:22:14;9.83;;;4.50;;
16119;SDS011;12670;53.502;10.252;2023-02-12T01:25:16;7.90;;;3.80;;
16119;SDS011;12670;53.502;10.252;2023-02-12T01:28:21;6.87;;;3.63;;
16119;SDS011;12670;53.502;10.252;2023-02-12T01:31:24;8.13;;;3.90;;
16119;SDS011;12670;53.502;10.252;2023-02-12T01:34:29;8.47;;;4.30;;
16119;SDS011;12670;53.502;10.252;2023-02-12T01:37:35;7.90;;;4.33;;
16119;SDS011;12670;53.502;10.252;2023-02-12T01:40:37;11.90;;;4.77;;
16119;SDS011;12670;53.502;10.252;2023-02-12T01:43:40;11.57;;;5.20;;
16119;SDS011;12670;53.502;10.252;2023-02-12T01:46:43;12.17;;;5.77;;
16119;SDS011;12670;53.502;10.252;2023-02-12T01:49:47;9.47;;;5.50;;
16119;SDS011;12670;53.502;10.252;2023-02-12T01:52:53;9.40;;;5.10;;
16119;SDS011;12670;53.502;10.252;2023-02-12T01:55:59;7.73;;;4.37;;
16119;SDS011;12670;53.502;10.252;2023-02-12T01:59:03;11.40;;;4.30;;
16119;SDS011;12670;53.502;10.252;2023-02-12T02:02:06;8.47;;;4.37;;
16119;SDS011;12670;53.502;10.252;2023-02-12T02:05:09;8.00;;;4.47;;
16119;SDS011;12670;53.502;10.252;2023-02-12T02:08:17;6.93;;;4.30;;
16119;SDS011;12670;53.502;10.252;2023-02-12T02:11:20;7.97;;;4.40;;
16119;SDS011;12670;53.502;10.252;2023-02-12T02:14:41;8.30;;;4.73;;
16119;SDS011;12670;53.502;10.252;2023-02-12T02:17:47;9.97;;;5.20;;
16119;SDS011;12670;53.502;10.252;2023-02-12T02:21:05;9.17;;;4.77;;
16119;SDS011;12670;53.502;10.252;2023-02-12T02:24:32;9.33;;;4.53;;
16119;SDS011;12670;53.502;10.252;2023-02-12T02:27:59;9.37;;;4.90;;
16119;SDS011;12670;53.502;10.252;2023-02-12T02:31:10;9.07;;;5.63;;
16119;SDS011;12670;53.502;10.252;2023-02-12T02:34:20;9.90;;;5.33;;
16119;SDS011;12670;53.502;10.252;2023-02-12T02:37:29;11.17;;;5.53;;
16119;SDS011;12670;53.502;10.252;2023-02-12T02:40:38;10.13;;;5.67;;
16119;SDS011;12670;53.502;10.252;2023-02-12T02:43:46;11.43;;;5.90;;
16119;SDS011;12670;53.502;10.252;2023-02-12T02:46:52;11.30;;;6.07;;
16119;SDS011;12670;53.502;10.252;2023-02-12T02:49:56;11.13;;;5.60;;
16119;SDS011;12670;53.502;10.252;2023-02-12T02:53:03;9.80;;;5.57;;
16119;SDS011;12670;53.502;10.252;2023-02-12T02:56:11;10.03;;;4.60;;
16119;SDS011;12670;53.502;10.252;2023-02-12T02:59:17;11.70;;;5.13;;
16119;SDS011;12670;53.502;10.252;2023-02-12T03:02:26;9.20;;;4.90;;
16119;SDS011;12670;53.502;10.252;2023-02-12T03:05:34;9.13;;;4.70;;
16119;SDS011;12670;53.502;10.252;2023-02-12T03:08:41;9.63;;;4.83;;
16119;SDS011;12670;53.502;10.252;2023-02-12T03:11:49;8.37;;;4.90;;
16119;SDS011;12670;53.502;10.252;2023-02-12T03:14:55;8.70;;;4.63;;
16119;SDS011;12670;53.502;10.252;2023-02-12T03:18:06;10.67;;;4.57;;
16119;SDS011;12670;53.502;10.252;2023-02-12T03:21:13;8.67;;;4.60;;
16119;SDS011;12670;53.502;10.252;2023-02-12T03:24:21;9.13;;;5.27;;
16119;SDS011;12670;53.502;10.252;2023-02-12T03:27:28;8.87;;;4.57;;
16119;SDS011;12670;53.502;10.252;2023-02-12T03:30:35;9.07;;;4.80;;
16119;SDS011;12670;53.502;10.252;2023-02-12T03:33:47;11.50;;;4.97;;
16119;SDS011;12670;53.502;10.252;2023-02-12T03:37:02;10.23;;;4.67;;
16119;SDS011;12670;53.502;10.252;2023-02-12T03:40:11;8.83;;;4.60;;
16119;SDS011;12670;53.502;10.252;2023-02-12T03:43:21;8.27;;;4.43;;
16119;SDS011;12670;53.502;10.252;2023-02-12T03:46:26;12.43;;;4.90;;
16119;SDS011;12670;53.502;10.252;2023-02-12T03:49:39;12.80;;;5.53;;
16119;SDS011;12670;53.502;10.252;2023-02-12T03:52:50;12.07;;;5.40;;
16119;SDS011;12670;53.502;10.252;2023-02-12T03:55:53;9.93;;;4.77;;
16119;SDS011;12670;53.502;10.252;2023-02-12T03:59:03;11.63;;;5.73;;
16119;SDS011;12670;53.502;10.252;2023-02-12T04:02:06;12.10;;;5.77;;
16119;SDS011;12670;53.502;10.252;2023-02-12T04:05:16;11.13;;;5.43;;
16119;SDS011;12670;53.502;10.252;2023-02-12T04:08:20;10.77;;;5.80;;
16119;SDS011;12670;53.502;10.252;2023-02-12T04:11:24;10.13;;;5.50;;
16119;SDS011;12670;53.502;10.252;2023-02-12T04:14:35;10.57;;;5.07;;
16119;SDS011;12670;53.502;10.252;2023-02-12T04:17:49;9.80;;;4.70;;
16119;SDS011;12670;53.502;10.252;2023-02-12T04:21:00;11.60;;;5.10;;
16119;SDS011;12670;53.502;10.252;2023-02-12T04:24:12;9.67;;;5.17;;
16119;SDS011;12670;53.502;10.252;2023-02-12T04:27:21;10.67;;;5.40;;
16119;SDS011;12670;53.502;10.252;2023-02-12T04:30:32;12.77;;;5.90;;
16119;SDS011;12670;53.502;10.252;2023-02-12T04:33:39;9.03;;;5.00;;
16119;SDS011;12670;53.502;10.252;2023-02-12T04:36:49;12.50;;;5.40;;
16119;SDS011;12670;53.502;10.252;2023-02-12T04:39:57;17.53;;;8.20;;
16119;SDS011;12670;53.502;10.252;2023-02-12T04:43:01;22.37;;;9.57;;
16119;SDS011;12670;53.502;10.252;2023-02-12T04:46:04;21.13;;;10.00;;
16119;SDS011;12670;53.502;10.252;2023-02-12T04:49:10;22.33;;;9.97;;
16119;SDS011;12670;53.502;10.252;2023-02-12T04:52:17;22.80;;;9.73;;
16119;SDS011;12670;53.502;10.252;2023-02-12T04:55:20;22.27;;;10.13;;
16119;SDS011;12670;53.502;10.252;2023-02-12T04:58:22;25.97;;;10.47;;
16119;SDS011;12670;53.502;10.252;2023-02-12T05:01:25;25.17;;;10.57;;
16119;SDS011;12670;53.502;10.252;2023-02-12T05:04:31;23.77;;;9.83;;
16119;SDS011;12670;53.502;10.252;2023-02-12T05:07:35;18.47;;;8.23;;
16119;SDS011;12670;53.502;10.252;2023-02-12T05:10:37;22.80;;;8.97;;
16119;SDS011;12670;53.502;10.252;2023-02-12T05:13:40;19.87;;;8.93;;
16119;SDS011;12670;53.502;10.252;2023-02-12T05:16:43;22.17;;;9.53;;
16119;SDS011;12670;53.502;10.252;2023-02-12T05:19:46;22.17;;;8.93;;
16119;SDS011;12670;53.502;10.252;2023-02-12T05:22:51;20.83;;;10.17;;
16119;SDS011;12670;53.502;10.252;2023-02-12T05:25:57;22.00;;;9.80;;
16119;SDS011;12670;53.502;10.252;2023-02-12T05:29:00;21.33;;;9.60;;
16119;SDS011;12670;53.502;10.252;2023-02-12T05:32:03;24.40;;;9.93;;
16119;SDS011;12670;53.502;10.252;2023-02-12T05:35:07;29.60;;;10.37;;
16119;SDS011;12670;53.502;10.252;2023-02-12T05:38:11;25.83;;;10.73;;
16119;SDS011;12670;53.502;10.252;2023-02-12T05:41:15;27.33;;;10.73;;
16119;SDS011;12670;53.502;10.252;2023-02-12T05:44:18;28.17;;;10.87;;
16119;SDS011;12670;53.502;10.252;2023-02-12T05:47:21;25.87;;;11.07;;
16119;SDS011;12670;53.502;10.252;2023-02-12T05:50:23;33.83;;;11.47;;
16119;SDS011;12670;53.502;10.252;2023-02-12T05:53:27;27.30;;;11.10;;
16119;SDS011;12670;53.502;10.252;2023-02-12T05:56:31;33.13;;;11.57;;
16119;SDS011;12670;53.502;10.252;2023-02-12T05:59:35;29.47;;;11.23;;
16119;SDS011;12670;53.502;10.252;2023-02-12T06:02:37;31.73;;;11.10;;
16119;SDS011;12670;53.502;10.252;2023-02-12T06:05:40;31.10;;;11.73;;
16119;SDS011;12670;53.502;10.252;2023-02-12T06:08:45;33.87;;;12.27;;
16119;SDS011;12670;53.502;10.252;2023-02-12T06:11:48;42.33;;;13.20;;
16119;SDS011;12670;53.502;10.252;2023-02-12T06:14:51;43.17;;;13.57;;
16119;SDS011;12670;53.502;10.252;2023-02-12T06:17:54;41.63;;;13.20;;
16119;SDS011;12670;53.502;10.252;2023-02-12T06:20:56;46.73;;;12.93;;
16119;SDS011;12670;53.502;10.252;2023-02-12T06:24:00;52.93;;;12.43;;
16119;SDS011;12670;53.502;10.252;2023-02-12T06:27:03;39.60;;;12.03;;
16119;SDS011;12670;53.502;10.252;2023-02-12T06:30:06;41.37;;;12.47;;
16119;SDS011;12670;53.502;10.252;2023-02-12T06:33:09;37.63;;;12.13;;
16119;SDS011;12670;53.502;10.252;2023-02-12T06:36:12;44.27;;;11.93;;
16119;SDS011;12670;53.502;10.252;2023-02-12T06:39:16;44.40;;;11.47;;
16119;SDS011;12670;53.502;10.252;2023-02-12T06:42:19;35.73;;;10.13;;
16119;SDS011;12670;53.502;10.252;2023-02-12T06:45:21;28.50;;;9.93;;
16119;SDS011;12670;53.502;10.252;2023-02-12T06:48:24;29.57;;;9.13;;
16119;SDS011;12670;53.502;10.252;2023-02-12T06:51:27;30.23;;;10.07;;
16119;SDS011;12670;53.502;10.252;2023-02-12T06:54:32;23.53;;;8.97;;
16119;SDS011;12670;53.502;10.252;2023-02-12T06:57:35;20.97;;;7.67;;
16119;SDS011;12670;53.502;10.252;2023-02-12T07:00:38;20.30;;;7.27;;
16119;SDS011;12670;53.502;10.252;2023-02-12T07:03:41;22.67;;;7.57;;
16119;SDS011;12670;53.502;10.252;2023-02-12T07:06:43;23.27;;;8.37;;
16119;SDS011;12670;53.502;10.252;2023-02-12T07:09:47;21.97;;;7.80;;
16119;SDS011;12670;53.502;10.252;2023-02-12T07:12:50;26.50;;;8.03;;
16119;SDS011;12670;53.502;10.252;2023-02-12T07:15:52;32.33;;;8.17;;
16119;SDS011;12670;53.502;10.252;2023-02-12T07:18:56;25.40;;;7.60;;
16119;SDS011;12670;53.502;10.252;2023-02-12T07:21:58;23.13;;;7.33;;
16119;SDS011;12670;53.502;10.252;2023-02-12T07:25:02;18.90;;;7.17;;
16119;SDS011;12670;53.502;10.252;2023-02-12T07:28:05;23.27;;;7.23;;
16119;SDS011;12670;53.502;10.252;2023-02-12T07:31:09;30.37;;;8.37;;
16119;SDS011;12670;53.502;10.252;2023-02-12T07:34:13;24.47;;;7.50;;
16119;SDS011;12670;53.502;10.252;2023-02-12T07:37:16;20.40;;;7.27;;
16119;SDS011;12670;53.502;10.252;2023-02-12T07:40:24;25.33;;;7.47;;
16119;SDS011;12670;53.502;10.252;2023-02-12T07:43:27;20.77;;;6.43;;
16119;SDS011;12670;53.502;10.252;2023-02-12T07:46:30;25.70;;;7.87;;
16119;SDS011;12670;53.502;10.252;2023-02-12T07:49:34;27.20;;;7.00;;
16119;SDS011;12670;53.502;10.252;2023-02-12T07:52:36;23.30;;;7.40;;
16119;SDS011;12670;53.502;10.252;2023-02-12T07:55:40;35.77;;;6.27;;
16119;SDS011;12670;53.502;10.252;2023-02-12T07:58:43;26.37;;;6.60;;
16119;SDS011;12670;53.502;10.252;2023-02-12T08:01:48;22.33;;;6.77;;
16119;SDS011;12670;53.502;10.252;2023-02-12T08:04:54;41.63;;;8.27;;
16119;SDS011;12670;53.502;10.252;2023-02-12T08:07:57;53.87;;;8.30;;
16119;SDS011;12670;53.502;10.252;2023-02-12T08:11:01;28.03;;;8.37;;
16119;SDS011;12670;53.502;10.252;2023-02-12T08:14:04;26.30;;;7.97;;
16119;SDS011;12670;53.502;10.252;2023-02-12T08:17:06;49.33;;;9.57;;
16119;SDS011;12670;53.502;10.252;2023-02-12T08:20:09;29.67;;;9.70;;
16119;SDS011;12670;53.502;10.252;2023-02-12T08:23:12;41.30;;;9.60;;
16119;SDS011;12670;53.502;10.252;2023-02-12T08:26:17;46.57;;;11.80;;
16119;SDS011;12670;53.502;10.252;2023-02-12T08:29:21;29.70;;;11.53;;
16119;SDS011;12670;53.502;10.252;2023-02-12T08:32:26;38.03;;;11.50;;
16119;SDS011;12670;53.502;10.252;2023-02-12T08:35:29;42.10;;;12.93;;
16119;SDS011;12670;53.502;10.252;2023-02-12T08:38:32;35.00;;;11.43;;
16119;SDS011;12670;53.502;10.252;2023-02-12T08:41:36;47.47;;;12.30;;
16119;SDS011;12670;53.502;10.252;2023-02-12T08:44:40;30.30;;;10.73;;
16119;SDS011;12670;53.502;10.252;2023-02-12T08:47:43;32.43;;;11.47;;
16119;SDS011;12670;53.502;10.252;2023-02-12T08:50:48;31.87;;;11.57;;
16119;SDS011;12670;53.502;10.252;2023-02-12T08:53:51;60.20;;;13.27;;
16119;SDS011;12670;53.502;10.252;2023-02-12T08:56:57;39.33;;;14.00;;
16119;SDS011;12670;53.502;10.252;2023-02-12T09:00:01;46.13;;;13.93;;
16119;SDS011;12670;53.502;10.252;2023-02-12T09:03:05;43.73;;;13.87;;
16119;SDS011;12670;53.502;10.252;2023-02-12T09:06:07;40.33;;;15.27;;
16119;SDS011;12670;53.502;10.252;2023-02-12T09:09:11;39.83;;;14.83;;
16119;SDS011;12670;53.502;10.252;2023-02-12T09:12:15;50.40;;;16.37;;
16119;SDS011;12670;53.502;10.252;2023-02-12T09:15:18;51.10;;;17.03;;
16119;SDS011;12670;53.502;10.252;2023-02-12T09:18:20;47.23;;;15.87;;
16119;SDS011;12670;53.502;10.252;2023-02-12T09:21:23;46.23;;;15.90;;
16119;SDS011;12670;53.502;10.252;2023-02-12T09:24:25;50.67;;;16.43;;
16119;SDS011;12670;53.502;10.252;2023-02-12T09:27:30;52.03;;;16.87;;
16119;SDS011;12670;53.502;10.252;2023-02-12T09:30:32;48.30;;;17.37;;
16119;SDS011;12670;53.502;10.252;2023-02-12T09:33:35;42.03;;;15.97;;
16119;SDS011;12670;53.502;10.252;2023-02-12T09:36:38;52.77;;;17.87;;
16119;SDS011;12670;53.502;10.252;2023-02-12T09:39:40;40.83;;;16.03;;
16119;SDS011;12670;53.502;10.252;2023-02-12T09:42:49;45.40;;;18.93;;
16119;SDS011;12670;53.502;10.252;2023-02-12T09:46:04;44.17;;;17.67;;
16119;SDS011;12670;53.502;10.252;2023-02-12T09:49:16;51.13;;;18.23;;
16119;SDS011;12670;53.502;10.252;2023-02-12T09:52:25;47.83;;;17.50;;
16119;SDS011;12670;53.502;10.252;2023-02-12T09:55:30;43.73;;;18.57;;
16119;SDS011;12670;53.502;10.252;2023-02-12T09:58:37;37.40;;;16.63;;
16119;SDS011;12670;53.502;10.252;2023-02-12T10:01:45;42.17;;;17.77;;
16119;SDS011;12670;53.502;10.252;2023-02-12T10:04:48;42.53;;;17.63;;
16119;SDS011;12670;53.502;10.252;2023-02-12T10:08:05;31.20;;;15.60;;
16119;SDS011;12670;53.502;10.252;2023-02-12T10:11:31;41.40;;;16.50;;
16119;SDS011;12670;53.502;10.252;2023-02-12T10:15:00;39.07;;;15.60;;
16119;SDS011;12670;53.502;10.252;2023-02-12T10:18:19;37.87;;;16.20;;
16119;SDS011;12670;53.502;10.252;2023-02-12T10:21:39;35.27;;;15.80;;
16119;SDS011;12670;53.502;10.252;2023-02-12T10:24:56;34.83;;;15.60;;
16119;SDS011;12670;53.502;10.252;2023-02-12T10:28:08;36.20;;;16.77;;
16119;SDS011;12670;53.502;10.252;2023-02-12T10:31:16;34.87;;;15.73;;
16119;SDS011;12670;53.502;10.252;2023-02-12T10:34:24;31.97;;;15.83;;
16119;SDS011;12670;53.502;10.252;2023-02-12T10:37:30;39.73;;;16.10;;
16119;SDS011;12670;53.502;10.252;2023-02-12T10:40:38;34.83;;;15.17;;
16119;SDS011;12670;53.502;10.252;2023-02-12T10:43:45;30.63;;;15.17;;
16119;SDS011;12670;53.502;10.252;2023-02-12T10:46:49;30.63;;;15.27;;
16119;SDS011;12670;53.502;10.252;2023-02-12T10:49:54;31.00;;;15.20;;
16119;SDS011;12670;53.502;10.252;2023-02-12T10:52:59;29.83;;;14.97;;
16119;SDS011;12670;53.502;10.252;2023-02-12T10:56:05;24.57;;;13.80;;
16119;SDS011;12670;53.502;10.252;2023-02-12T10:59:20;24.47;;;13.57;;
16119;SDS011;12670;53.502;10.252;2023-02-12T11:02:26;27.53;;;13.93;;
16119;SDS011;12670;53.502;10.252;2023-02-12T11:05:30;29.03;;;13.40;;
16119;SDS011;12670;53.502;10.252;2023-02-12T11:08:36;22.57;;;12.90;;
16119;SDS011;12670;53.502;10.252;2023-02-12T11:11:39;23.37;;;12.93;;
16119;SDS011;12670;53.502;10.252;2023-02-12T11:14:46;23.50;;;12.80;;
16119;SDS011;12670;53.502;10.252;2023-02-12T11:17:56;22.10;;;12.00;;
16119;SDS011;12670;53.502;10.252;2023-02-12T11:21:03;21.37;;;12.50;;
16119;SDS011;12670;53.502;10.252;2023-02-12T11:24:20;22.00;;;11.07;;
16119;SDS011;12670;53.502;10.252;2023-02-12T11:27:32;17.47;;;10.07;;
16119;SDS011;12670;53.502;10.252;2023-02-12T11:30:35;17.70;;;9.50;;
16119;SDS011;12670;53.502;10.252;2023-02-12T11:34:08;16.23;;;9.83;;
16119;SDS011;12670;53.502;10.252;2023-02-12T11:37:16;15.47;;;9.53;;
16119;SDS011;12670;53.502;10.252;2023-02-12T11:40:21;17.27;;;9.47;;
16119;SDS011;12670;53.502;10.252;2023-02-12T11:43:26;17.20;;;7.93;;
16119;SDS011;12670;53.502;10.252;2023-02-12T11:46:31;13.73;;;8.80;;
16119;SDS011;12670;53.502;10.252;2023-02-12T11:49:38;13.97;;;9.03;;
16119;SDS011;12670;53.502;10.252;2023-02-12T11:52:46;20.13;;;11.33;;
16119;SDS011;12670;53.502;10.252;2023-02-12T11:55:55;20.83;;;11.70;;
16119;SDS011;12670;53.502;10.252;2023-02-12T11:59:08;23.33;;;11.00;;
16119;SDS011;12670;53.502;10.252;2023-02-12T12:02:22;19.47;;;11.17;;
16119;SDS011;12670;53.502;10.252;2023-02-12T12:05:30;20.93;;;11.70;;
16119;SDS011;12670;53.502;10.252;2023-02-12T12:08:39;23.13;;;12.30;;
16119;SDS011;12670;53.502;10.252;2023-02-12T12:11:46;21.70;;;11.37;;
16119;SDS011;12670;53.502;10.252;2023-02-12T12:14:59;21.27;;;11.53;;
16119;SDS011;12670;53.502;10.252;2023-02-12T12:18:23;22.10;;;11.53;;
16119;SDS011;12670;53.502;10.252;2023-02-12T12:21:53;19.77;;;10.40;;
16119;SDS011;12670;53.502;10.252;2023-02-12T12:25:04;17.50;;;10.07;;
16119;SDS011;12670;53.502;10.252;2023-02-12T12:28:16;16.37;;;9.33;;
16119;SDS011;12670;53.502;10.252;2023-02-12T12:31:30;16.80;;;8.87;;
16119;SDS011;12670;53.502;10.252;2023-02-12T12:34:37;17.63;;;8.73;;
16119;SDS011;12670;53.502;10.252;2023-02-12T12:37:41;16.60;;;7.87;;
16119;SDS011;12670;53.502;10.252;2023-02-12T12:40:52;16.63;;;8.37;;
16119;SDS011;12670;53.502;10.252;2023-02-12T12:44:08;15.90;;;7.40;;
16119;SDS011;12670;53.502;10.252;2023-02-12T12:47:20;13.90;;;7.37;;
16119;SDS011;12670;53.502;10.252;2023-02-12T12:50:30;14.90;;;7.53;;
16119;SDS011;12670;53.502;10.252;2023-02-12T12:53:51;16.10;;;7.80;;
16119;SDS011;12670;53.502;10.252;2023-02-12T12:57:04;14.50;;;7.10;;
16119;SDS011;12670;53.502;10.252;2023-02-12T13:00:20;13.73;;;7.33;;
16119;SDS011;12670;53.502;10.252;2023-02-12T13:07:12;15.93;;;8.20;;
16119;SDS011;12670;53.502;10.252;2023-02-12T13:10:32;14.13;;;7.17;;
16119;SDS011;12670;53.502;10.252;2023-02-12T13:13:41;12.87;;;6.93;;
16119;SDS011;12670;53.502;10.252;2023-02-12T13:16:48;11.80;;;6.93;;
16119;SDS011;12670;53.502;10.252;2023-02-12T13:20:01;13.53;;;6.57;;
16119;SDS011;12670;53.502;10.252;2023-02-12T13:23:11;16.30;;;7.47;;
16119;SDS011;12670;53.502;10.252;2023-02-12T13:26:20;12.27;;;6.83;;
16119;SDS011;12670;53.502;10.252;2023-02-12T13:29:31;12.93;;;7.47;;
16119;SDS011;12670;53.502;10.252;2023-02-12T13:32:39;11.77;;;7.83;;
16119;SDS011;12670;53.502;10.252;2023-02-12T13:35:47;15.10;;;8.00;;
16119;SDS011;12670;53.502;10.252;2023-02-12T13:38:54;13.90;;;8.27;;
16119;SDS011;12670;53.502;10.252;2023-02-12T13:42:03;14.97;;;9.40;;
16119;SDS011;12670;53.502;10.252;2023-02-12T13:45:20;14.17;;;8.57;;
16119;SDS011;12670;53.502;10.252;2023-02-12T13:48:34;15.67;;;9.43;;
16119;SDS011;12670;53.502;10.252;2023-02-12T13:51:49;12.53;;;8.53;;
16119;SDS011;12670;53.502;10.252;2023-02-12T13:55:06;13.63;;;8.50;;
16119;SDS011;12670;53.502;10.252;2023-02-12T14:02:00;11.23;;;7.03;;
16119;SDS011;12670;53.502;10.252;2023-02-12T14:05:13;9.80;;;6.70;;
16119;SDS011;12670;53.502;10.252;2023-02-12T14:08:35;13.03;;;6.13;;
16119;SDS011;12670;53.502;10.252;2023-02-12T14:11:45;7.80;;;4.63;;
16119;SDS011;12670;53.502;10.252;2023-02-12T14:14:52;6.80;;;4.13;;
16119;SDS011;12670;53.502;10.252;2023-02-12T14:27:57;5.87;;;3.97;;
16119;SDS011;12670;53.502;10.252;2023-02-12T14:31:21;3.90;;;3.17;;
16119;SDS011;12670;53.502;10.252;2023-02-12T14:34:41;5.30;;;3.70;;
16119;SDS011;12670;53.502;10.252;2023-02-12T14:37:44;5.87;;;3.70;;
16119;SDS011;12670;53.502;10.252;2023-02-12T14:40:47;7.97;;;4.20;;
16119;SDS011;12670;53.502;10.252;2023-02-12T14:43:50;7.57;;;4.00;;
16119;SDS011;12670;53.502;10.252;2023-02-12T14:47:10;5.87;;;4.00;;
16119;SDS011;12670;53.502;10.252;2023-02-12T14:50:19;6.17;;;4.33;;
16119;SDS011;12670;53.502;10.252;2023-02-12T14:53:25;4.93;;;3.83;;
16119;SDS011;12670;53.502;10.252;2023-02-12T14:56:32;6.57;;;4.50;;
16119;SDS011;12670;53.502;10.252;2023-02-12T14:59:44;7.47;;;4.13;;
16119;SDS011;12670;53.502;10.252;2023-02-12T15:02:50;8.43;;;4.37;;
16119;SDS011;12670;53.502;10.252;2023-02-12T15:06:03;9.10;;;5.20;;
16119;SDS011;12670;53.502;10.252;2023-02-12T15:09:13;8.77;;;5.23;;
16119;SDS011;12670;53.502;10.252;2023-02-12T15:12:23;8.77;;;5.70;;
16119;SDS011;12670;53.502;10.252;2023-02-12T15:15:33;6.50;;;4.77;;
16119;SDS011;12670;53.502;10.252;2023-02-12T15:18:43;10.00;;;5.73;;
16119;SDS011;12670;53.502;10.252;2023-02-12T15:21:52;8.63;;;5.80;;
16119;SDS011;12670;53.502;10.252;2023-02-12T15:28:17;10.47;;;5.80;;
16119;SDS011;12670;53.502;10.252;2023-02-12T15:31:25;10.33;;;5.87;;
16119;SDS011;12670;53.502;10.252;2023-02-12T15:34:31;10.03;;;5.70;;
16119;SDS011;12670;53.502;10.252;2023-02-12T15:37:38;14.10;;;7.53;;
16119;SDS011;12670;53.502;10.252;2023-02-12T15:40:51;14.03;;;7.30;;
16119;SDS011;12670;53.502;10.252;2023-02-12T15:43:55;13.53;;;7.20;;
16119;SDS011;12670;53.502;10.252;2023-02-12T15:47:00;12.83;;;7.37;;
16119;SDS011;12670;53.502;10.252;2023-02-12T15:50:12;12.90;;;7.17;;
16119;SDS011;12670;53.502;10.252;2023-02-12T15:53:17;13.27;;;7.07;;
16119;SDS011;12670;53.502;10.252;2023-02-12T15:56:22;11.83;;;6.90;;
16119;SDS011;12670;53.502;10.252;2023-02-12T15:59:26;13.50;;;8.17;;
16119;SDS011;12670;53.502;10.252;2023-02-12T16:02:30;15.10;;;7.43;;
16119;SDS011;12670;53.502;10.252;2023-02-12T16:05:35;15.07;;;8.23;;
16119;SDS011;12670;53.502;10.252;2023-02-12T16:08:38;18.27;;;10.37;;
16119;SDS011;12670;53.502;10.252;2023-02-12T16:11:43;22.97;;;10.87;;
16119;SDS011;12670;53.502;10.252;2023-02-12T16:14:48;12.47;;;7.00;;
16119;SDS011;12670;53.502;10.252;2023-02-12T16:17:53;14.13;;;7.43;;
16119;SDS011;12670;53.502;10.252;2023-02-12T16:21:02;13.70;;;7.53;;
16119;SDS011;12670;53.502;10.252;2023-02-12T16:24:16;13.00;;;7.50;;
16119;SDS011;12670;53.502;10.252;2023-02-12T16:27:24;11.67;;;6.93;;
16119;SDS011;12670;53.502;10.252;2023-02-12T16:30:31;14.40;;;7.90;;
16119;SDS011;12670;53.502;10.252;2023-02-12T16:33:40;11.87;;;7.43;;
16119;SDS011;12670;53.502;10.252;2023-02-12T16:36:50;11.83;;;6.90;;
16119;SDS011;12670;53.502;10.252;2023-02-12T16:40:11;14.53;;;7.40;;
16119;SDS011;12670;53.502;10.252;2023-02-12T16:43:22;13.53;;;7.50;;
16119;SDS011;12670;53.502;10.252;2023-02-12T16:46:28;22.90;;;11.10;;
16119;SDS011;12670;53.502;10.252;2023-02-12T16:49:32;13.10;;;7.83;;
16119;SDS011;12670;53.502;10.252;2023-02-12T16:52:37;15.47;;;8.67;;
16119;SDS011;12670;53.502;10.252;2023-02-12T16:55:41;18.40;;;9.30;;
16119;SDS011;12670;53.502;10.252;2023-02-12T16:58:44;17.27;;;8.50;;
16119;SDS011;12670;53.502;10.252;2023-02-12T17:01:55;12.50;;;7.10;;
16119;SDS011;12670;53.502;10.252;2023-02-12T17:04:59;11.27;;;7.23;;
16119;SDS011;12670;53.502;10.252;2023-02-12T17:08:05;12.20;;;7.20;;
16119;SDS011;12670;53.502;10.252;2023-02-12T17:11:13;13.80;;;7.90;;
16119;SDS011;12670;53.502;10.252;2023-02-12T17:14:18;13.83;;;8.20;;
16119;SDS011;12670;53.502;10.252;2023-02-12T17:17:21;16.83;;;7.90;;
16119;SDS011;12670;53.502;10.252;2023-02-12T17:20:24;12.97;;;7.53;;
16119;SDS011;12670;53.502;10.252;2023-02-12T17:23:28;12.50;;;8.60;;
16119;SDS011;12670;53.502;10.252;2023-02-12T17:26:31;11.27;;;7.67;;
16119;SDS011;12670;53.502;10.252;2023-02-12T17:29:33;12.37;;;7.20;;
16119;SDS011;12670;53.502;10.252;2023-02-12T17:32:36;14.03;;;7.17;;
16119;SDS011;12670;53.502;10.252;2023-02-12T17:35:39;13.00;;;7.37;;
16119;SDS011;12670;53.502;10.252;2023-02-12T17:38:43;13.93;;;7.27;;
16119;SDS011;12670;53.502;10.252;2023-02-12T17:41:46;22.73;;;12.80;;
16119;SDS011;12670;53.502;10.252;2023-02-12T17:44:48;19.43;;;11.10;;
16119;SDS011;12670;53.502;10.252;2023-02-12T17:47:51;22.90;;;11.97;;
16119;SDS011;12670;53.502;10.252;2023-02-12T17:50:54;15.80;;;9.60;;
16119;SDS011;12670;53.502;10.252;2023-02-12T17:53:59;13.70;;;8.67;;
16119;SDS011;12670;53.502;10.252;2023-02-12T17:57:02;11.53;;;7.40;;
16119;SDS011;12670;53.502;10.252;2023-02-12T18:00:06;11.53;;;7.53;;
16119;SDS011;12670;53.502;10.252;2023-02-12T18:03:15;11.73;;;7.03;;
16119;SDS011;12670;53.502;10.252;2023-02-12T18:06:22;12.13;;;7.93;;
16119;SDS011;12670;53.502;10.252;2023-02-12T18:09:27;10.90;;;7.27;;
16119;SDS011;12670;53.502;10.252;2023-02-12T18:12:30;14.37;;;7.53;;
16119;SDS011;12670;53.502;10.252;2023-02-12T18:15:33;12.17;;;7.10;;
16119;SDS011;12670;53.502;10.252;2023-02-12T18:18:36;10.67;;;6.90;;
16119;SDS011;12670;53.502;10.252;2023-02-12T18:21:40;10.30;;;6.97;;
16119;SDS011;12670;53.502;10.252;2023-02-12T18:24:44;10.47;;;6.70;;
16119;SDS011;12670;53.502;10.252;2023-02-12T18:27:47;12.60;;;6.10;;
16119;SDS011;12670;53.502;10.252;2023-02-12T18:30:54;13.90;;;6.80;;
16119;SDS011;12670;53.502;10.252;2023-02-12T18:33:58;10.73;;;7.13;;